createdAt,value
2023-01-19T00:15:31.913Z,1.7
2023-01-19T00:25:32.545Z,1.8
2023-01-19T00:35:32.776Z,1.9
2023-01-19T00:45:33.247Z,2
2023-01-19T00:55:33.839Z,2.1
2023-01-19T01:05:34.025Z,2.1
2023-01-19T01:15:34.677Z,2.1
2023-01-19T01:25:35.436Z,2.1
2023-01-19T01:35:35.932Z,2.1
2023-01-19T01:45:36.260Z,2.1
2023-01-19T01:55:36.571Z,2.1
2023-01-19T02:15:37.492Z,2.2
2023-01-19T02:25:38.286Z,2.2
2023-01-19T02:35:38.417Z,2.1
2023-01-19T02:45:39.576Z,2.1
2023-01-19T02:55:40.394Z,2.1
2023-01-19T03:05:40.252Z,2
2023-01-19T03:15:40.712Z,2
2023-01-19T03:25:41.667Z,2
2023-01-19T03:35:41.855Z,1.9
2023-01-19T03:45:42.541Z,2
2023-01-19T03:55:43.414Z,2.1
2023-01-19T04:15:45.253Z,1.5
2023-01-19T04:25:45.576Z,1
2023-01-19T04:35:45.773Z,0.7
2023-01-19T04:45:46.139Z,0.7
2023-01-19T04:55:46.729Z,0.8
2023-01-19T05:05:46.847Z,0.8
2023-01-19T05:15:47.649Z,0.8
2023-01-19T05:25:48.461Z,0.8
2023-01-19T05:35:48.989Z,0.8
2023-01-19T05:45:50.072Z,0.6
2023-01-19T05:55:50.831Z,0.6
2023-01-19T06:05:51.700Z,0.6
2023-01-19T06:15:52.099Z,0.6
2023-01-19T06:25:52.518Z,0.5
2023-01-19T06:35:53.161Z,0.6
2023-01-19T06:45:53.571Z,0.6
2023-01-19T06:55:54.463Z,0.6
2023-01-19T07:05:54.856Z,0.6
2023-01-19T07:15:55.270Z,0.7
2023-01-19T07:25:56.177Z,0.7
2023-01-19T07:35:56.424Z,0.8
2023-01-19T07:45:57.174Z,0.7
2023-01-19T07:55:57.921Z,0.9
2023-01-19T08:05:58.283Z,1
2023-01-19T08:15:58.507Z,1.1
2023-01-19T08:25:58.624Z,1.2
2023-01-19T08:35:59.498Z,1.2
2023-01-19T08:45:59.839Z,1.2
2023-01-19T08:56:00.679Z,1.3
2023-01-19T09:06:00.853Z,1.4
2023-01-19T09:16:01.586Z,1.5
2023-01-19T09:36:02.295Z,1.6
2023-01-19T09:56:03.060Z,1.7
2023-01-19T10:06:04.138Z,1.8
2023-01-19T10:16:04.363Z,1.8
2023-01-19T10:26:05.437Z,1.8
2023-01-19T10:36:06.268Z,1.9
2023-01-19T10:46:06.724Z,2
2023-01-19T10:56:07.436Z,2.1
2023-01-19T11:06:08.277Z,2.2
2023-01-19T11:16:10.982Z,2.3
2023-01-19T11:26:09.728Z,2.2
2023-01-19T11:36:10.187Z,2.5
2023-01-19T11:46:10.894Z,2.6
2023-01-19T11:56:11.283Z,2.6
2023-01-19T12:06:12.047Z,2.7
2023-01-19T12:16:12.392Z,2.7
2023-01-19T12:26:13.341Z,2.7
2023-01-19T12:36:14.159Z,2.6
2023-01-19T12:46:15.164Z,2.6
2023-01-19T12:56:15.508Z,2.7
2023-01-19T13:06:16.539Z,2.7
2023-01-19T13:16:17.027Z,2.8
2023-01-19T13:26:17.608Z,2.8
2023-01-19T13:36:18.613Z,2.8
2023-01-19T13:46:19.183Z,2.8
2023-01-19T13:56:19.756Z,2.8
2023-01-19T14:06:20.410Z,2.9
2023-01-19T14:16:21.442Z,2.9
2023-01-19T14:26:21.550Z,2.9
2023-01-19T14:36:22.564Z,2.8
2023-01-19T14:46:22.796Z,2.8
2023-01-19T14:56:23.784Z,2.7
2023-01-19T15:06:24.175Z,2.6
2023-01-19T15:16:24.627Z,2.6
2023-01-19T15:26:25.235Z,2.6
2023-01-19T15:36:25.781Z,2.5
2023-01-19T15:46:26.656Z,2.4
2023-01-19T15:56:26.929Z,2.4
2023-01-19T16:06:27.599Z,2.3
2023-01-19T16:16:28.548Z,2.2
2023-01-19T16:26:28.673Z,2
2023-01-19T16:46:29.210Z,1.8
2023-01-19T16:56:29.582Z,1.7
2023-01-19T17:06:29.659Z,1.7
2023-01-19T17:26:31.688Z,1.7
2023-01-19T17:36:32.150Z,1.7
2023-01-19T17:46:33.016Z,1.6
2023-01-19T18:06:34.454Z,1.5
2023-01-19T18:16:34.732Z,1.4
2023-01-19T18:26:35.065Z,1.3
2023-01-19T18:36:35.453Z,1.3
2023-01-19T18:46:35.785Z,1.3
2023-01-19T18:56:36.550Z,1.3
2023-01-19T19:06:37.018Z,1.3
2023-01-19T19:16:39.459Z,1.4
2023-01-19T19:26:37.867Z,1.4
2023-01-19T19:36:38.689Z,1.4
2023-01-19T19:46:39.108Z,1.4
2023-01-19T19:56:39.177Z,1.3
2023-01-19T20:06:39.927Z,1.3
2023-01-19T20:16:40.512Z,1.4
2023-01-19T20:26:40.912Z,1.4
2023-01-19T20:36:41.820Z,1.4
2023-01-19T20:46:42.580Z,1.4
2023-01-19T20:56:43.159Z,1.4
2023-01-19T21:06:43.505Z,1.5
2023-01-19T21:16:44.422Z,1.6
2023-01-19T21:26:44.824Z,1.6
2023-01-19T21:36:45.741Z,1.5
2023-01-19T21:46:46.318Z,1.5
2023-01-19T21:56:46.506Z,1.5
2023-01-19T22:06:47.531Z,1.5
2023-01-19T22:26:48.691Z,1.4
2023-01-19T22:36:49.024Z,1.4
2023-01-19T22:46:49.440Z,1.3
2023-01-19T22:56:49.833Z,1.3
2023-01-19T22:57:11.760Z,1.3
2023-01-19T23:06:55.506Z,1.3
2023-01-19T23:16:55.919Z,1.3
2023-01-19T23:26:56.994Z,1.2
2023-01-19T23:36:58.058Z,1.2
2023-01-19T23:46:58.806Z,1.2
2023-01-19T23:56:59.100Z,1.1
